KOSC/OSC METAR and TAF weather

Enter ICAO airport designator
Station Type Date Time Source
KOSC METAR 2021/03/05 18:55 UTC NOAA

KOSC 051855Z AUTO 33016G22KT 10SM SCT055 04/M08 A3015 RMK AO2 T00401081


Station Type Date Time Source
KOSC Decoded METAR 2021/03/05 18:55 UTC NOAA

Oscoda, Oscoda-Wurtsmith Airport, MI, United States (KOSC) 44-27N 083-22W
Mar 05, 2021 - 01:55 PM EST / 2021.03.05 1855 UTC
Wind: from the NNW (330 degrees) at 18 MPH (16 KT) gusting to 25 MPH (22 KT):0
Visibility: 10 mile(s):0
Sky conditions: partly cloudy
Temperature: 39.2 F (4.0 C)
Dew Point: 17.4 F (-8.1 C)
Relative Humidity: 40%
Pressure (altimeter): 30.15 in. Hg (1020 hPa)
ob: KOSC 051855Z AUTO 33016G22KT 10SM SCT055 04/M08 A3015 RMK AO2 T00401081
cycle: 19

Station Type Date Time Source
KOSC TAF UTC NOAA

Error!

Example: see airport list